Ballinamallard, United Kingdom
Current Conditions -  °F | °C
As of 6:20 AM on Wednesday 28 Jan 2015 (Local Time) from EGAE Reporting Station
Rain Showers Rain Showers  
Wind Chill: 29°   Ceiling: 1200
Heat Index: 39°   Visibility: 5mi
Dew Point: 37°   Wind: 22mph
Humidity: 93%   Direction: 270°W
Pressure: 29.41"   Gusts: 39mph
Location:  54.4°N, 7.58°W
Report Text: EGAE 280620Z 27019G34KT 240V320 8000 -SHRA SCT010 BKN012 04/03 Q0996
Loading
Personal Weather Stations






























Interactive Weather Map New forecast layout! Learn more

10-Day Weather Forecast

Advertisements
Track Severe Weather on mobile